createdAt,value
2019-02-26T00:03:09.000Z,21
2019-02-26T00:04:12.000Z,21
2019-02-26T00:04:12.000Z,21
2019-02-26T00:05:08.000Z,21
2019-02-26T00:05:38.000Z,21
2019-02-26T00:05:38.000Z,21
2019-02-26T00:06:35.000Z,21
2019-02-26T00:07:05.000Z,21.1
2019-02-26T00:07:37.000Z,21.1
2019-02-26T00:08:07.000Z,21.1
2019-02-26T00:08:38.000Z,21.1
2019-02-26T00:09:08.000Z,21.1
2019-02-26T00:09:40.000Z,21.1
2019-02-26T00:10:12.000Z,21.1
2019-02-26T00:10:43.000Z,21.1
2019-02-26T00:11:15.000Z,21.1
2019-02-26T00:12:02.000Z,21.1
2019-02-26T00:13:21.197Z,21.1
2019-02-26T00:13:45.759Z,21.1
2019-02-26T00:20:01.956Z,21
2019-02-26T00:20:26.918Z,21
2019-02-26T00:20:51.957Z,21.1
2019-02-26T00:21:17.700Z,21
2019-02-26T00:21:40.868Z,21
2019-02-26T00:22:04.866Z,21
2019-02-26T00:22:27.764Z,21
2019-02-26T00:22:50.816Z,21
2019-02-26T00:23:17.156Z,21
2019-02-26T00:23:39.814Z,21
2019-02-26T00:24:02.766Z,21
2019-02-26T00:24:21.000Z,21
2019-02-26T00:24:51.000Z,21.1
2019-02-26T00:26:06.985Z,21.1
2019-02-26T00:26:31.954Z,21.1
2019-02-26T00:26:56.248Z,21.1
2019-02-26T00:27:21.261Z,21.1
2019-02-26T00:27:45.043Z,21.1
2019-02-26T00:28:09.037Z,21.1
2019-02-26T00:28:32.044Z,21.1
2019-02-26T00:28:54.892Z,21.1
2019-02-26T00:29:18.991Z,21.1
2019-02-26T00:29:42.141Z,21.1
2019-02-26T00:30:04.819Z,21.1
2019-02-26T00:30:29.027Z,21.1
2019-02-26T00:30:52.923Z,21.1
2019-02-26T00:31:16.849Z,21.1
2019-02-26T00:31:41.087Z,21.1
2019-02-26T00:32:04.968Z,21.1
2019-02-26T00:32:27.790Z,21.1
2019-02-26T00:32:50.927Z,21.1
2019-02-26T00:33:14.795Z,21.1
2019-02-26T00:34:03.743Z,21
2019-02-26T00:34:27.852Z,21.1
2019-02-26T00:34:51.022Z,21.1
2019-02-26T00:35:13.793Z,21.1
2019-02-26T00:35:37.057Z,21.1
2019-02-26T00:36:02.251Z,21.1
2019-02-26T00:36:24.786Z,21.1
2019-02-26T00:36:55.065Z,21.1
2019-02-26T00:37:17.813Z,21.1
2019-02-26T00:37:41.805Z,21.1
2019-02-26T00:38:06.634Z,21.1
2019-02-26T00:38:30.750Z,21.1
2019-02-26T00:38:53.920Z,21.1
2019-02-26T00:39:18.437Z,21
2019-02-26T00:39:43.160Z,21.1
2019-02-26T00:40:05.668Z,21.1
2019-02-26T00:40:29.746Z,21.1
2019-02-26T00:40:48.000Z,21
2019-02-26T00:40:52.916Z,21.1
2019-02-26T00:41:40.000Z,21.1
2019-02-26T00:42:10.000Z,21.1
2019-02-26T00:42:41.000Z,21
2019-02-26T00:43:11.000Z,21
2019-02-26T00:43:42.000Z,21.1
2019-02-26T00:44:11.000Z,21.1
2019-02-26T00:44:42.000Z,21.1
2019-02-26T00:45:12.000Z,21.1
2019-02-26T00:45:43.000Z,21.1
2019-02-26T00:46:15.000Z,21.1
2019-02-26T00:46:44.000Z,21.1
2019-02-26T00:47:13.000Z,21.1
2019-02-26T00:48:27.889Z,21.1
2019-02-26T00:48:54.038Z,21.1
2019-02-26T00:49:16.829Z,21.1
2019-02-26T00:49:39.777Z,21
2019-02-26T00:50:02.974Z,21.1
2019-02-26T00:50:25.713Z,21.1
2019-02-26T00:50:49.954Z,21.1
2019-02-26T00:51:13.930Z,21
2019-02-26T00:51:36.818Z,21.1
2019-02-26T00:52:01.720Z,21.1
2019-02-26T00:52:25.966Z,21.1
2019-02-26T00:52:50.011Z,21.1
2019-02-26T00:53:08.000Z,21.1
2019-02-26T00:53:38.000Z,21.1
2019-02-26T00:54:09.000Z,21.1
2019-02-26T00:54:41.000Z,21
2019-02-26T00:55:14.000Z,21
2019-02-26T00:55:44.000Z,21.1
2019-02-26T00:56:15.000Z,21.1
2019-02-26T00:56:46.000Z,21
2019-02-26T00:57:18.000Z,21.1
2019-02-26T00:57:47.000Z,21.1
2019-02-26T00:58:18.000Z,21.1
2019-02-26T00:59:32.846Z,21.1
2019-02-26T00:59:57.899Z,21.1
2019-02-26T01:00:21.896Z,21.1
2019-02-26T01:00:59.000Z,21
2019-02-26T01:01:28.000Z,21
2019-02-26T01:02:59.477Z,21
2019-02-26T01:03:37.970Z,21.1
2019-02-26T01:04:36.845Z,21
2019-02-26T01:05:01.837Z,21
2019-02-26T01:05:31.969Z,21
2019-02-26T01:05:54.803Z,21
2019-02-26T01:06:20.264Z,21
2019-02-26T01:06:54.669Z,21
2019-02-26T01:07:16.768Z,21
2019-02-26T01:07:39.852Z,20.9
2019-02-26T01:08:03.940Z,21
2019-02-26T01:08:33.606Z,21
2019-02-26T01:08:56.878Z,21
2019-02-26T01:09:20.942Z,21.1
2019-02-26T01:09:45.598Z,21.1
2019-02-26T01:10:09.467Z,21
2019-02-26T01:10:32.256Z,21
2019-02-26T01:10:54.769Z,21
2019-02-26T01:11:17.052Z,20.9
2019-02-26T01:11:40.740Z,21
2019-02-26T01:12:04.355Z,21
2019-02-26T01:12:28.821Z,21
2019-02-26T01:12:54.366Z,21
2019-02-26T01:13:18.009Z,21.1
2019-02-26T01:13:46.470Z,21.1
2019-02-26T01:14:11.509Z,21.1
2019-02-26T01:14:37.039Z,21.1
2019-02-26T01:15:00.330Z,21
2019-02-26T01:16:34.970Z,21.1
2019-02-26T01:17:05.425Z,21
2019-02-26T01:17:29.018Z,21.1
2019-02-26T01:17:52.278Z,21.1
2019-02-26T01:18:15.906Z,21.1
2019-02-26T01:18:39.967Z,21.1
2019-02-26T01:19:06.184Z,21.1
2019-02-26T01:19:29.981Z,21
2019-02-26T01:19:52.295Z,20.9
2019-02-26T01:20:16.987Z,21.1
2019-02-26T01:20:36.000Z,21.1
2019-02-26T01:21:09.000Z,21.1
2019-02-26T01:22:29.077Z,21
2019-02-26T01:23:14.284Z,21
2019-02-26T01:23:54.476Z,21
2019-02-26T01:24:19.230Z,21
2019-02-26T01:24:45.548Z,21
2019-02-26T01:25:07.946Z,21.1
2019-02-26T01:27:32.000Z,21.1
2019-02-26T01:28:05.000Z,21
2019-02-26T01:28:34.000Z,21.1
2019-02-26T01:29:06.000Z,21
2019-02-26T01:29:37.000Z,21
2019-02-26T01:30:08.000Z,21.1
2019-02-26T01:30:41.000Z,21.1
2019-02-26T01:30:41.000Z,21.1
2019-02-26T01:31:39.000Z,21.1
2019-02-26T01:32:53.995Z,21.1
2019-02-26T01:33:19.745Z,21.1
2019-02-26T01:33:44.005Z,21.1
2019-02-26T01:34:06.889Z,21.1
2019-02-26T01:34:35.871Z,21.1
2019-02-26T01:34:58.742Z,21.1
2019-02-26T01:35:24.039Z,21.1
2019-02-26T01:35:47.965Z,21.1
2019-02-26T01:36:11.798Z,21.1
2019-02-26T01:36:36.147Z,21.1
2019-02-26T01:36:58.778Z,21.1
2019-02-26T01:37:22.974Z,21.1
2019-02-26T01:37:47.115Z,21.1
2019-02-26T01:38:05.000Z,21.1
2019-02-26T01:38:09.954Z,21.1
2019-02-26T01:38:58.000Z,21
2019-02-26T01:39:28.000Z,21
2019-02-26T01:39:58.000Z,21
2019-02-26T01:40:30.000Z,21
2019-02-26T01:41:01.000Z,21
2019-02-26T01:41:32.000Z,21
2019-02-26T01:42:03.000Z,21
2019-02-26T01:42:36.000Z,21
2019-02-26T01:43:59.000Z,21
2019-02-26T01:45:15.767Z,21
2019-02-26T01:45:41.762Z,21
2019-02-26T01:46:05.015Z,21.1
2019-02-26T01:46:27.837Z,21
2019-02-26T01:46:51.015Z,21
2019-02-26T01:47:14.906Z,21
2019-02-26T01:47:38.140Z,21.1
2019-02-26T01:48:01.835Z,21.1
2019-02-26T01:48:27.729Z,21.1
2019-02-26T01:48:50.840Z,21.1
2019-02-26T01:49:14.753Z,21.1
2019-02-26T01:49:37.684Z,21.1
2019-02-26T01:50:02.029Z,21.1
2019-02-26T01:50:25.954Z,21.1
2019-02-26T01:50:49.723Z,21
2019-02-26T01:51:14.937Z,21
2019-02-26T01:51:40.653Z,21.1
2019-02-26T01:52:03.938Z,21.1
2019-02-26T01:52:47.340Z,21.1
2019-02-26T01:53:09.961Z,21.1
2019-02-26T01:53:39.927Z,21.1
2019-02-26T01:54:02.989Z,21.1
2019-02-26T01:54:25.887Z,21.1
2019-02-26T01:54:49.060Z,21.1
2019-02-26T01:55:13.933Z,21.1
2019-02-26T01:55:37.057Z,21.1
2019-02-26T02:00:46.000Z,21.1
2019-02-26T02:01:31.000Z,21.1
2019-02-26T02:02:01.000Z,21.1
2019-02-26T02:03:16.619Z,21.1
2019-02-26T02:03:41.795Z,21.1
2019-02-26T02:04:05.884Z,21.1
2019-02-26T02:04:29.855Z,21.1
2019-02-26T02:04:52.939Z,21.1
2019-02-26T02:05:16.729Z,21.1
2019-02-26T02:05:40.904Z,21.1
2019-02-26T02:06:04.011Z,21.1
2019-02-26T02:06:27.821Z,21
2019-02-26T02:06:51.923Z,21
2019-02-26T02:07:16.810Z,21
2019-02-26T02:07:35.000Z,21.1
2019-02-26T02:07:41.965Z,21
2019-02-26T02:08:30.000Z,21
2019-02-26T02:09:00.000Z,21.1
2019-02-26T02:09:30.000Z,21
2019-02-26T02:10:42.000Z,21.1
2019-02-26T02:11:14.000Z,21.1
2019-02-26T02:11:14.000Z,21.1
2019-02-26T02:12:16.000Z,21.1
2019-02-26T02:12:46.000Z,21.1
2019-02-26T02:13:16.000Z,21.1
2019-02-26T02:13:48.000Z,21.1
2019-02-26T02:15:06.061Z,21
2019-02-26T02:15:33.288Z,21
2019-02-26T02:15:55.475Z,21
2019-02-26T02:16:19.969Z,21.1
2019-02-26T02:16:58.991Z,21
2019-02-26T02:17:26.469Z,21
2019-02-26T02:17:52.665Z,21
2019-02-26T02:18:15.828Z,21
2019-02-26T02:18:34.000Z,21
2019-02-26T02:19:05.000Z,21
2019-02-26T02:19:51.000Z,21
2019-02-26T02:21:19.967Z,21
2019-02-26T02:21:44.765Z,20.9
2019-02-26T02:22:07.832Z,21
2019-02-26T02:22:30.892Z,21
2019-02-26T02:22:53.771Z,21
2019-02-26T02:23:16.817Z,21
2019-02-26T02:23:35.000Z,21
2019-02-26T02:23:39.952Z,21
2019-02-26T02:24:29.000Z,21
2019-02-26T02:25:17.000Z,21
2019-02-26T02:25:50.000Z,21
2019-02-26T02:26:34.000Z,21
2019-02-26T02:27:05.000Z,21
2019-02-26T02:27:38.000Z,21.1
2019-02-26T02:28:09.000Z,21.1
2019-02-26T02:29:02.000Z,21
2019-02-26T02:29:03.000Z,21
2019-02-26T02:30:02.000Z,21
2019-02-26T02:31:18.911Z,21.1
2019-02-26T02:31:49.829Z,21.1
2019-02-26T02:32:17.854Z,21.1
2019-02-26T02:32:39.000Z,21.1
2019-02-26T02:32:43.961Z,21.1
2019-02-26T02:34:16.000Z,21.1
2019-02-26T02:34:20.828Z,21.1
2019-02-26T02:36:07.246Z,21.1
2019-02-26T02:37:12.926Z,21.1
2019-02-26T02:37:48.215Z,21.1
2019-02-26T02:38:56.000Z,21.1
2019-02-26T02:40:35.002Z,21.1
2019-02-26T02:41:36.068Z,21.1
2019-02-26T02:42:05.964Z,21.1
2019-02-26T02:42:31.866Z,21.1
2019-02-26T02:42:53.000Z,21.1
2019-02-26T02:44:07.950Z,21.1
2019-02-26T02:44:36.892Z,21.1
2019-02-26T02:45:02.032Z,21.1
2019-02-26T02:45:45.200Z,21.1
2019-02-26T02:46:31.915Z,21
2019-02-26T02:46:55.879Z,21.1
2019-02-26T02:47:22.106Z,21.1
2019-02-26T02:47:43.000Z,21.1
2019-02-26T02:49:00.151Z,21.1
2019-02-26T02:49:27.267Z,21.1
2019-02-26T02:50:00.513Z,21.1
2019-02-26T02:50:56.901Z,21.1
2019-02-26T02:51:22.902Z,21.1
2019-02-26T02:51:56.529Z,21.1
2019-02-26T02:52:21.876Z,21.1
2019-02-26T02:52:48.086Z,21.1
2019-02-26T02:53:15.372Z,21.1
2019-02-26T02:53:41.986Z,21.1
2019-02-26T02:54:08.976Z,21.1
2019-02-26T02:54:36.010Z,21.1
2019-02-26T02:55:02.029Z,21.1
2019-02-26T02:55:35.433Z,21.1
2019-02-26T02:56:00.912Z,21.1
2019-02-26T02:56:28.295Z,21.1
2019-02-26T02:56:54.058Z,21.1
2019-02-26T02:57:18.915Z,21.1
2019-02-26T02:57:44.043Z,21.1
2019-02-26T02:58:09.836Z,21.1
2019-02-26T02:58:35.833Z,21
2019-02-26T02:59:00.827Z,21.1
2019-02-26T02:59:25.970Z,21.1
2019-02-26T02:59:51.980Z,21.1
2019-02-26T03:00:17.948Z,21.1
2019-02-26T03:00:43.773Z,21.1
2019-02-26T03:01:10.798Z,21
2019-02-26T03:01:40.394Z,21
2019-02-26T03:02:02.000Z,21
2019-02-26T03:02:06.908Z,21
2019-02-26T03:03:38.000Z,21
2019-02-26T03:03:43.065Z,21
2019-02-26T03:05:27.040Z,21.1
2019-02-26T03:05:55.828Z,21.1
2019-02-26T03:06:21.693Z,21.1
2019-02-26T03:06:47.886Z,21.1
2019-02-26T03:07:12.690Z,21.1
2019-02-26T03:07:39.813Z,21.1
2019-02-26T03:08:05.798Z,21.1
2019-02-26T03:08:37.072Z,21.1
2019-02-26T03:09:04.577Z,21.1
2019-02-26T03:09:28.711Z,21.1
2019-02-26T03:09:55.713Z,21.1
2019-02-26T03:10:52.000Z,21.1
2019-02-26T03:12:40.758Z,21.1
2019-02-26T03:13:11.954Z,21.1
2019-02-26T03:13:37.989Z,21.1
2019-02-26T03:14:02.866Z,21.1
2019-02-26T03:14:27.634Z,21.1
2019-02-26T03:14:53.707Z,21.1
2019-02-26T03:15:18.757Z,21.1
2019-02-26T03:15:44.862Z,21.1
2019-02-26T03:16:10.789Z,21.1
2019-02-26T03:16:36.714Z,21.1
2019-02-26T03:17:02.946Z,21.1
2019-02-26T03:18:01.025Z,21.1
2019-02-26T03:19:01.834Z,21.1
2019-02-26T03:19:27.064Z,21.1
2019-02-26T03:19:52.899Z,21.1
2019-02-26T03:20:19.846Z,21.1
2019-02-26T03:20:48.936Z,21.1
2019-02-26T03:21:13.985Z,21.1
2019-02-26T03:21:39.749Z,21.1
2019-02-26T03:22:04.759Z,21.1
2019-02-26T03:22:30.802Z,21.1
2019-02-26T03:23:01.475Z,21.1
2019-02-26T03:23:28.821Z,21.1
2019-02-26T03:23:54.908Z,21.1
2019-02-26T03:24:19.792Z,21.1
2019-02-26T03:24:45.786Z,21.1
2019-02-26T03:25:11.885Z,21.1
2019-02-26T03:25:34.000Z,21.1
2019-02-26T03:25:38.939Z,21.1
2019-02-26T03:27:23.726Z,21.1
2019-02-26T03:28:24.000Z,21.1
2019-02-26T03:29:42.886Z,21.1
2019-02-26T03:30:06.000Z,21.1
2019-02-26T03:31:21.275Z,21.1
2019-02-26T03:32:32.078Z,21.1
2019-02-26T03:33:41.000Z,21.1
2019-02-26T03:34:17.000Z,21.1
2019-02-26T03:36:01.298Z,21.1
2019-02-26T03:36:28.949Z,21.1
2019-02-26T03:36:54.976Z,21.1
2019-02-26T03:37:21.038Z,21.1
2019-02-26T03:37:45.989Z,21.1
2019-02-26T03:38:12.781Z,21.1
2019-02-26T03:38:33.000Z,21.1
2019-02-26T03:39:50.020Z,21.1
2019-02-26T03:40:18.026Z,21.1
2019-02-26T03:40:45.865Z,21.1
2019-02-26T03:41:13.923Z,21.1
2019-02-26T03:41:40.762Z,21.1
2019-02-26T03:42:05.825Z,21.1
2019-02-26T03:42:30.892Z,21.1
2019-02-26T03:42:59.146Z,21.1
2019-02-26T03:43:26.018Z,21.1
2019-02-26T03:43:52.118Z,21.1
2019-02-26T03:53:15.000Z,21.1
2019-02-26T03:54:33.237Z,21.1
2019-02-26T03:54:59.954Z,21.1
2019-02-26T03:55:23.000Z,21.1
2019-02-26T03:55:27.976Z,21.1
2019-02-26T03:57:06.960Z,21.1
2019-02-26T03:57:29.000Z,21.1
2019-02-26T03:58:05.000Z,21.1
2019-02-26T04:00:00.578Z,21.1
2019-02-26T04:00:24.000Z,21.1
2019-02-26T04:00:29.035Z,21.1
2019-02-26T04:02:04.937Z,21.1
2019-02-26T04:02:34.180Z,21.1
2019-02-26T04:03:00.968Z,21.1
2019-02-26T04:03:27.178Z,21.1
2019-02-26T04:03:51.941Z,21.1
2019-02-26T04:04:12.000Z,21.1
2019-02-26T04:04:18.080Z,21.1
2019-02-26T04:05:53.013Z,21.1
2019-02-26T04:06:28.264Z,21.1
2019-02-26T04:06:52.974Z,21.1
2019-02-26T04:07:19.980Z,21.1
2019-02-26T04:07:45.529Z,21.1
2019-02-26T04:08:14.049Z,21.1
2019-02-26T04:08:39.889Z,21.1
2019-02-26T04:09:01.000Z,21.1
2019-02-26T04:09:05.807Z,21.1
2019-02-26T04:10:42.970Z,21.1
2019-02-26T04:11:11.558Z,21.1
2019-02-26T04:11:36.840Z,21.1
2019-02-26T04:12:04.953Z,21.1
2019-02-26T04:12:25.000Z,21.1
2019-02-26T04:13:38.850Z,21.1
2019-02-26T04:14:01.000Z,21.1
2019-02-26T04:15:19.939Z,21.1
2019-02-26T04:15:47.822Z,21.1
2019-02-26T04:16:27.253Z,21
2019-02-26T04:16:52.776Z,21.1
2019-02-26T04:17:13.000Z,21.1
2019-02-26T04:20:49.000Z,21.1
2019-02-26T04:22:08.435Z,21.1
2019-02-26T04:22:35.817Z,21.1
2019-02-26T04:23:05.804Z,21.1
2019-02-26T04:23:30.903Z,21.1
2019-02-26T04:23:55.754Z,21.1
2019-02-26T04:24:20.715Z,21.1
2019-02-26T04:24:47.771Z,21.1
2019-02-26T04:25:18.844Z,21.1
2019-02-26T04:25:45.999Z,21.1
2019-02-26T04:26:06.000Z,21.1
2019-02-26T04:27:26.215Z,21.1
2019-02-26T04:27:49.000Z,21.1
2019-02-26T04:27:53.851Z,21.1
2019-02-26T04:29:31.109Z,21.1
2019-02-26T04:30:03.231Z,21.1
2019-02-26T04:30:23.000Z,21.1
2019-02-26T04:31:38.952Z,21.1
2019-02-26T04:32:06.774Z,21.1
2019-02-26T04:32:33.020Z,21.1
2019-02-26T04:32:58.821Z,21.1
2019-02-26T04:33:24.964Z,21.1
2019-02-26T04:33:50.751Z,21.1
2019-02-26T04:34:46.178Z,21.1
2019-02-26T04:35:40.054Z,21.1
2019-02-26T04:36:06.968Z,21.1
2019-02-26T04:36:31.881Z,21.1
2019-02-26T04:36:56.814Z,21.1
2019-02-26T04:37:21.949Z,21.1
2019-02-26T04:37:50.301Z,21.2
2019-02-26T04:38:15.692Z,21.1
2019-02-26T04:38:40.867Z,21.1
2019-02-26T04:39:04.924Z,21.1
2019-02-26T04:39:31.863Z,21.2
2019-02-26T04:39:56.783Z,21.2
2019-02-26T04:40:23.889Z,21.1
2019-02-26T04:40:45.000Z,21.2
2019-02-26T04:42:00.964Z,21.2
2019-02-26T04:42:29.814Z,21.2
2019-02-26T04:42:56.902Z,21.1
2019-02-26T04:43:22.816Z,21.2
2019-02-26T04:43:48.927Z,21.1
2019-02-26T04:44:15.950Z,21.1
2019-02-26T04:44:38.000Z,21.1
2019-02-26T04:45:54.737Z,21.1
2019-02-26T04:46:22.714Z,21.1
2019-02-26T04:46:49.063Z,21.1
2019-02-26T04:47:15.702Z,21.1
2019-02-26T04:47:42.997Z,21.1
2019-02-26T04:48:05.000Z,21.1
2019-02-26T04:49:23.076Z,21.1
2019-02-26T04:49:51.771Z,21.1
2019-02-26T04:50:13.000Z,21.1
2019-02-26T04:51:31.574Z,21.1
2019-02-26T04:51:59.655Z,21.1
2019-02-26T04:52:26.894Z,21.1
2019-02-26T04:52:52.887Z,21.1
2019-02-26T04:53:20.840Z,21.1
2019-02-26T04:53:45.632Z,21.1
2019-02-26T04:54:06.000Z,21.1
2019-02-26T04:55:24.437Z,21.1
2019-02-26T04:55:55.021Z,21.1
2019-02-26T04:56:19.000Z,21.1
2019-02-26T04:57:34.991Z,21.1
2019-02-26T04:58:06.095Z,21
2019-02-26T04:58:31.644Z,21
2019-02-26T04:59:00.211Z,21
2019-02-26T04:59:26.964Z,21
2019-02-26T04:59:52.840Z,21
2019-02-26T05:00:20.991Z,21.1
2019-02-26T05:01:02.134Z,21
2019-02-26T05:01:41.630Z,21.1
2019-02-26T05:03:02.412Z,21.1
2019-02-26T05:04:25.393Z,21.1
2019-02-26T05:05:19.212Z,21.1
2019-02-26T05:05:41.000Z,21.1
2019-02-26T05:06:59.992Z,21.1
2019-02-26T05:07:32.915Z,21.1
2019-02-26T05:08:01.030Z,21.1
2019-02-26T05:08:26.835Z,21.1
2019-02-26T05:08:52.860Z,21.1
2019-02-26T05:09:19.884Z,21.1
2019-02-26T05:09:45.082Z,21.1
2019-02-26T05:10:18.052Z,21.1
2019-02-26T05:10:43.872Z,21.1
2019-02-26T05:11:04.000Z,21.1
2019-02-26T05:12:21.006Z,21.1
2019-02-26T05:12:49.954Z,21.1
2019-02-26T05:13:19.004Z,21.1
2019-02-26T05:14:04.253Z,21
2019-02-26T05:15:01.000Z,21.1
2019-02-26T05:16:21.858Z,21.1
2019-02-26T05:17:16.136Z,21.1
2019-02-26T05:18:15.019Z,21.1
2019-02-26T05:18:40.790Z,21.1
2019-02-26T05:19:07.886Z,21.1
2019-02-26T05:19:33.895Z,21.1
2019-02-26T05:20:00.784Z,21.1
2019-02-26T05:20:28.809Z,21.1
2019-02-26T05:20:56.826Z,21.1
2019-02-26T05:21:21.918Z,21.1
2019-02-26T05:21:51.032Z,21.1
2019-02-26T05:22:16.788Z,21.1
2019-02-26T05:22:49.273Z,21.1
2019-02-26T05:23:18.250Z,21.1
2019-02-26T05:23:43.942Z,21.1
2019-02-26T05:24:09.824Z,21.1
2019-02-26T05:24:35.803Z,21.1
2019-02-26T05:25:01.940Z,21.1
2019-02-26T05:25:28.847Z,21.1
2019-02-26T05:25:49.000Z,21.1
2019-02-26T05:27:04.982Z,21.1
2019-02-26T05:27:33.784Z,21.1
2019-02-26T05:27:56.000Z,21.1
2019-02-26T05:28:00.980Z,21.1
2019-02-26T05:29:36.211Z,21.1
2019-02-26T05:30:04.571Z,21.1
2019-02-26T05:30:34.988Z,21.1
2019-02-26T05:31:00.930Z,21.1
2019-02-26T05:31:26.811Z,21.1
2019-02-26T05:31:52.853Z,21.1
2019-02-26T05:32:18.852Z,21.1
2019-02-26T05:32:48.376Z,21.1
2019-02-26T05:33:15.980Z,21.1
2019-02-26T05:33:44.150Z,21.1
2019-02-26T05:34:09.785Z,21.1
2019-02-26T05:34:35.018Z,21.1
2019-02-26T05:35:09.258Z,21.1
2019-02-26T05:35:34.980Z,21.1
2019-02-26T05:36:01.057Z,21.1
2019-02-26T05:36:28.370Z,21.1
2019-02-26T05:36:56.791Z,21.1
2019-02-26T05:37:23.929Z,21.1
2019-02-26T05:37:52.799Z,21.1
2019-02-26T05:38:21.517Z,21.1
2019-02-26T05:38:46.863Z,21.1
2019-02-26T05:39:11.869Z,21.1
2019-02-26T05:39:37.860Z,21.1
2019-02-26T05:40:03.910Z,21.1
2019-02-26T05:40:26.000Z,21.1
2019-02-26T05:41:47.711Z,21.2
2019-02-26T05:42:51.052Z,21.2
2019-02-26T05:43:18.023Z,21.2
2019-02-26T05:43:38.000Z,21.2
2019-02-26T05:44:49.040Z,21.2
2019-02-26T05:45:18.934Z,21.2
2019-02-26T05:45:45.722Z,21.2
2019-02-26T05:46:12.965Z,21.2
2019-02-26T05:46:44.826Z,21.3
2019-02-26T05:47:10.766Z,21.3
2019-02-26T05:47:40.150Z,21.3
2019-02-26T05:48:10.192Z,21.3
2019-02-26T05:48:34.701Z,21.3
2019-02-26T05:49:00.634Z,21.3
2019-02-26T05:49:28.785Z,21.3
2019-02-26T05:49:57.007Z,21.3
2019-02-26T05:50:26.959Z,21.3
2019-02-26T05:50:54.930Z,21.3
2019-02-26T05:51:21.908Z,21.3
2019-02-26T05:51:50.902Z,21.4
2019-02-26T05:52:12.000Z,21.4
2019-02-26T05:52:18.920Z,21.4
2019-02-26T05:53:48.000Z,21.4
2019-02-26T05:55:09.877Z,21.4
2019-02-26T05:55:38.841Z,21.4
2019-02-26T05:56:06.138Z,21.4
2019-02-26T05:56:31.740Z,21.4
2019-02-26T05:56:58.911Z,21.4
2019-02-26T05:58:04.937Z,21.4
2019-02-26T05:58:30.810Z,21.4
2019-02-26T05:58:51.000Z,21.4
2019-02-26T06:00:08.565Z,21.4
2019-02-26T06:01:11.013Z,21.4
2019-02-26T06:01:41.510Z,21.4
2019-02-26T06:02:07.875Z,21.4
2019-02-26T06:02:34.007Z,21.5
2019-02-26T06:03:00.868Z,21.5
2019-02-26T06:03:35.318Z,21.5
2019-02-26T06:04:01.012Z,21.4
2019-02-26T06:04:29.317Z,21.5
2019-02-26T06:05:09.286Z,21.4
2019-02-26T06:05:30.000Z,21.5
2019-02-26T06:06:46.094Z,21.5
2019-02-26T06:08:21.070Z,21.4
2019-02-26T06:08:51.876Z,21.4
2019-02-26T06:09:16.905Z,21.4
2019-02-26T06:09:42.885Z,21.4
2019-02-26T06:10:16.338Z,21.4
2019-02-26T06:11:16.000Z,21.4
2019-02-26T06:12:27.976Z,21.3
2019-02-26T06:12:59.545Z,21.4
2019-02-26T06:13:25.935Z,21.3
2019-02-26T06:13:52.892Z,21.4
2019-02-26T06:14:22.016Z,21.3
2019-02-26T06:14:48.965Z,21.3
2019-02-26T06:15:17.807Z,21.3
2019-02-26T06:15:48.253Z,21.3
2019-02-26T06:16:16.941Z,21.3
2019-02-26T06:16:40.867Z,21.3
2019-02-26T06:17:00.000Z,21.3
2019-02-26T06:17:04.941Z,21.3
2019-02-26T06:18:36.964Z,21.4
2019-02-26T06:19:03.837Z,21.4
2019-02-26T06:19:27.802Z,21.4
2019-02-26T06:19:54.881Z,21.4
2019-02-26T06:20:21.061Z,21.4
2019-02-26T06:20:46.099Z,21.4
2019-02-26T06:21:10.629Z,21.4
2019-02-26T06:21:30.000Z,21.4
2019-02-26T06:22:01.000Z,21.4
2019-02-26T06:23:21.012Z,21.4
2019-02-26T06:24:10.000Z,21.4
2019-02-26T06:24:43.000Z,21.4
2019-02-26T06:25:50.975Z,21.4
2019-02-26T06:27:26.000Z,21.5
2019-02-26T06:28:25.000Z,21.5
2019-02-26T06:29:11.000Z,21.5
2019-02-26T06:29:42.000Z,21.5
2019-02-26T06:31:07.412Z,21.5
2019-02-26T06:31:34.794Z,21.6
2019-02-26T06:31:58.748Z,21.5
2019-02-26T06:32:16.000Z,21.6
2019-02-26T06:32:49.000Z,21.6
2019-02-26T06:33:21.000Z,21.6
2019-02-26T06:33:52.000Z,21.6
2019-02-26T06:35:02.521Z,21.6
2019-02-26T06:35:29.008Z,21.6
2019-02-26T06:35:52.781Z,21.6
2019-02-26T06:36:15.914Z,21.6
2019-02-26T06:36:39.853Z,21.6
2019-02-26T06:37:03.064Z,21.6
2019-02-26T06:37:26.049Z,21.6
2019-02-26T06:37:57.324Z,21.6
2019-02-26T06:38:21.062Z,21.6
2019-02-26T06:38:39.000Z,21.6
2019-02-26T06:39:11.000Z,21.6
2019-02-26T06:39:41.000Z,21.6
2019-02-26T06:40:21.000Z,21.5
2019-02-26T06:41:35.847Z,21.6
2019-02-26T06:42:00.880Z,21.5
2019-02-26T06:42:26.079Z,21.5
2019-02-26T06:42:55.000Z,21.6
2019-02-26T06:44:34.860Z,21.5
2019-02-26T06:45:00.993Z,21.5
2019-02-26T06:45:33.338Z,21.5
2019-02-26T06:45:57.802Z,21.5
2019-02-26T06:46:23.969Z,21.5
2019-02-26T06:46:55.913Z,21.5
2019-02-26T06:47:18.887Z,21.5
2019-02-26T06:47:42.862Z,21.5
2019-02-26T06:48:03.000Z,21.5
2019-02-26T06:49:12.923Z,21.5
2019-02-26T06:49:38.839Z,21.5
2019-02-26T06:50:02.970Z,21.5
2019-02-26T06:50:29.589Z,21.5
2019-02-26T06:50:52.921Z,21.5
2019-02-26T06:51:16.886Z,21.5
2019-02-26T06:51:40.841Z,21.5
2019-02-26T06:52:03.865Z,21.5
2019-02-26T06:52:22.000Z,21.5
2019-02-26T06:52:55.000Z,21.5
2019-02-26T06:53:34.000Z,21.4
2019-02-26T06:54:06.000Z,21.4
2019-02-26T06:54:37.000Z,21.4
2019-02-26T06:56:23.000Z,21.4
2019-02-26T06:57:36.736Z,21.4
2019-02-26T06:58:33.569Z,21.4
2019-02-26T06:58:58.637Z,21.4
2019-02-26T06:59:23.025Z,21.4
2019-02-26T06:59:48.489Z,21.4
2019-02-26T07:00:14.082Z,21.4
2019-02-26T07:00:39.209Z,21.4
2019-02-26T07:01:05.036Z,21.4
2019-02-26T07:01:28.311Z,21.4
2019-02-26T07:06:09.000Z,21.3
2019-02-26T07:06:40.000Z,21.3
2019-02-26T07:07:50.239Z,21.3
2019-02-26T07:08:16.854Z,21.3
2019-02-26T07:08:39.849Z,21.3
2019-02-26T07:09:06.596Z,21.3
2019-02-26T07:09:30.077Z,21.3
2019-02-26T07:10:03.000Z,21.3
2019-02-26T07:11:21.662Z,21.3
2019-02-26T07:12:12.311Z,21.3
2019-02-26T07:12:36.179Z,21.3
2019-02-26T07:12:59.940Z,21.3
2019-02-26T07:13:31.588Z,21.3
2019-02-26T07:13:56.072Z,21.3
2019-02-26T07:14:20.021Z,21.3
2019-02-26T07:14:43.872Z,21.3
2019-02-26T07:16:55.000Z,21.3
2019-02-26T07:17:50.000Z,21.3
2019-02-26T07:18:57.003Z,21.3
2019-02-26T07:19:23.979Z,21.2
2019-02-26T07:19:48.536Z,21.3
2019-02-26T07:20:24.000Z,21.3
2019-02-26T07:21:35.981Z,21.3
2019-02-26T07:22:03.030Z,21.3
2019-02-26T07:22:37.077Z,21.2
2019-02-26T07:23:01.328Z,21.2
2019-02-26T07:23:25.199Z,21.3
2019-02-26T07:23:49.120Z,21.2
2019-02-26T07:24:13.043Z,21.2
2019-02-26T07:24:38.727Z,21.2
2019-02-26T07:25:03.866Z,21.2
2019-02-26T07:25:29.150Z,21.2
2019-02-26T07:26:09.101Z,21.2
2019-02-26T07:26:34.042Z,21.2
2019-02-26T07:26:59.701Z,21.2
2019-02-26T07:27:24.282Z,21.2
2019-02-26T07:27:49.029Z,21.2
2019-02-26T07:28:13.068Z,21.2
2019-02-26T07:28:36.991Z,21.1
2019-02-26T07:28:56.000Z,21.1
2019-02-26T07:29:00.989Z,21.1
2019-02-26T07:30:30.567Z,21.1
2019-02-26T07:30:58.048Z,21.1
2019-02-26T07:31:21.907Z,21.1
2019-02-26T07:31:44.821Z,21.1
2019-02-26T07:32:10.181Z,21.1
2019-02-26T07:32:33.894Z,21.1
2019-02-26T07:33:00.526Z,21.1
2019-02-26T07:33:24.875Z,21.1
2019-02-26T07:33:48.970Z,21.1
2019-02-26T07:34:13.277Z,21.1
2019-02-26T07:34:37.886Z,21.2
2019-02-26T07:35:01.840Z,21.2
2019-02-26T07:35:25.803Z,21.2
2019-02-26T07:35:50.141Z,21.2
2019-02-26T07:36:13.930Z,21.1
2019-02-26T07:36:38.990Z,21.2
2019-02-26T07:37:02.045Z,21.2
2019-02-26T07:37:26.090Z,21.2
2019-02-26T07:37:50.070Z,21.2
2019-02-26T07:38:13.375Z,21.2
2019-02-26T07:38:41.179Z,21.2
2019-02-26T07:39:08.072Z,21.2
2019-02-26T07:39:37.480Z,21.2
2019-02-26T07:40:00.967Z,21.2
2019-02-26T07:40:25.451Z,21.2
2019-02-26T07:40:52.074Z,21.2
2019-02-26T07:41:16.053Z,21.2
2019-02-26T07:41:39.958Z,21.2
2019-02-26T07:42:04.645Z,21.2
2019-02-26T07:42:23.000Z,21.2
2019-02-26T07:42:54.000Z,21.2
2019-02-26T07:43:27.000Z,21.2
2019-02-26T07:43:59.000Z,21.2
2019-02-26T07:45:14.916Z,21.2
2019-02-26T07:46:07.071Z,21.2
2019-02-26T07:46:30.869Z,21.2
2019-02-26T07:46:56.160Z,21.3
2019-02-26T07:47:22.178Z,21.3
2019-02-26T07:47:46.295Z,21.3
2019-02-26T07:48:05.000Z,21.3
2019-02-26T07:48:38.000Z,21.3
2019-02-26T07:49:46.000Z,21.3
2019-02-26T07:50:19.000Z,21.3
2019-02-26T07:51:27.313Z,21.4
2019-02-26T07:51:53.324Z,21.4
2019-02-26T07:52:19.416Z,21.4
2019-02-26T07:52:45.012Z,21.4
2019-02-26T07:53:04.000Z,21.4
2019-02-26T07:53:09.995Z,21.4
2019-02-26T07:54:35.210Z,21.4
2019-02-26T07:55:01.330Z,21.4
2019-02-26T07:55:27.722Z,21.4
2019-02-26T07:55:54.158Z,21.4
2019-02-26T07:56:18.373Z,21.5
2019-02-26T07:56:47.840Z,21.5
2019-02-26T07:57:13.364Z,21.5
2019-02-26T07:57:38.106Z,21.5
2019-02-26T07:58:03.645Z,21.5
2019-02-26T07:58:28.585Z,21.5
2019-02-26T07:58:47.000Z,21.5
2019-02-26T07:59:20.000Z,21.5